sensor_id;sensor_type;location;lat;lon;timestamp;temperature;humidity
16038;DHT22;8123;50.906;6.172;2022-12-16T00:00:35;-4.60;99.90
16038;DHT22;8123;50.906;6.172;2022-12-16T00:03:00;-4.60;99.90
16038;DHT22;8123;50.906;6.172;2022-12-16T00:05:27;-4.60;99.90
16038;DHT22;8123;50.906;6.172;2022-12-16T00:07:53;-4.70;99.90
16038;DHT22;8123;50.906;6.172;2022-12-16T00:10:20;-4.70;99.90
16038;DHT22;8123;50.906;6.172;2022-12-16T00:12:46;-4.70;99.90
16038;DHT22;8123;50.906;6.172;2022-12-16T00:15:12;-4.60;99.90
16038;DHT22;8123;50.906;6.172;2022-12-16T00:17:38;-4.60;99.90
16038;DHT22;8123;50.906;6.172;2022-12-16T00:20:04;-4.60;99.90
16038;DHT22;8123;50.906;6.172;2022-12-16T00:22:30;-4.60;99.90
16038;DHT22;8123;50.906;6.172;2022-12-16T00:24:56;-4.60;99.90
16038;DHT22;8123;50.906;6.172;2022-12-16T00:27:21;-4.60;99.90
16038;DHT22;8123;50.906;6.172;2022-12-16T00:29:47;-4.60;99.90
16038;DHT22;8123;50.906;6.172;2022-12-16T00:32:13;-4.60;99.90
16038;DHT22;8123;50.906;6.172;2022-12-16T00:34:38;-4.60;99.90
16038;DHT22;8123;50.906;6.172;2022-12-16T00:37:04;-4.60;99.90
16038;DHT22;8123;50.906;6.172;2022-12-16T00:39:30;-4.60;99.90
16038;DHT22;8123;50.906;6.172;2022-12-16T00:41:55;-4.60;99.90
16038;DHT22;8123;50.906;6.172;2022-12-16T00:44:21;-4.60;99.90
16038;DHT22;8123;50.906;6.172;2022-12-16T00:46:47;-4.60;99.90
16038;DHT22;8123;50.906;6.172;2022-12-16T00:49:12;-4.70;99.90
16038;DHT22;8123;50.906;6.172;2022-12-16T00:51:38;-4.70;99.90
16038;DHT22;8123;50.906;6.172;2022-12-16T00:54:04;-4.80;99.90
16038;DHT22;8123;50.906;6.172;2022-12-16T00:56:29;-4.80;99.90
16038;DHT22;8123;50.906;6.172;2022-12-16T00:58:55;-4.70;99.90
16038;DHT22;8123;50.906;6.172;2022-12-16T01:01:20;-4.60;99.90
16038;DHT22;8123;50.906;6.172;2022-12-16T01:03:46;-4.50;99.90
16038;DHT22;8123;50.906;6.172;2022-12-16T01:06:14;-4.40;99.90
16038;DHT22;8123;50.906;6.172;2022-12-16T01:08:41;-4.40;99.90
16038;DHT22;8123;50.906;6.172;2022-12-16T01:11:19;-4.40;99.90
16038;DHT22;8123;50.906;6.172;2022-12-16T01:13:48;-4.40;99.90
16038;DHT22;8123;50.906;6.172;2022-12-16T01:16:14;-4.50;99.90
16038;DHT22;8123;50.906;6.172;2022-12-16T01:18:40;-4.50;99.90
16038;DHT22;8123;50.906;6.172;2022-12-16T01:21:07;-4.50;99.90
16038;DHT22;8123;50.906;6.172;2022-12-16T01:23:33;-4.60;99.90
16038;DHT22;8123;50.906;6.172;2022-12-16T01:25:59;-4.60;99.90
16038;DHT22;8123;50.906;6.172;2022-12-16T01:28:27;-4.60;99.90
16038;DHT22;8123;50.906;6.172;2022-12-16T01:30:57;-4.60;99.90
16038;DHT22;8123;50.906;6.172;2022-12-16T01:33:30;-4.60;99.90
16038;DHT22;8123;50.906;6.172;2022-12-16T01:36:01;-4.60;99.90
16038;DHT22;8123;50.906;6.172;2022-12-16T01:38:27;-4.50;99.90
16038;DHT22;8123;50.906;6.172;2022-12-16T01:40:53;-4.50;99.90
16038;DHT22;8123;50.906;6.172;2022-12-16T01:43:25;-4.50;99.90
16038;DHT22;8123;50.906;6.172;2022-12-16T01:46:07;-4.50;99.90
16038;DHT22;8123;50.906;6.172;2022-12-16T01:48:57;-4.40;99.90
16038;DHT22;8123;50.906;6.172;2022-12-16T01:51:34;-4.40;99.90
16038;DHT22;8123;50.906;6.172;2022-12-16T01:54:10;-4.50;99.90
16038;DHT22;8123;50.906;6.172;2022-12-16T01:56:39;-4.50;99.90
16038;DHT22;8123;50.906;6.172;2022-12-16T01:59:06;-4.50;99.90
16038;DHT22;8123;50.906;6.172;2022-12-16T02:01:32;-4.40;99.90
16038;DHT22;8123;50.906;6.172;2022-12-16T02:04:01;-4.40;99.90
16038;DHT22;8123;50.906;6.172;2022-12-16T02:06:29;-4.40;99.90
16038;DHT22;8123;50.906;6.172;2022-12-16T02:08:58;-4.40;99.90
16038;DHT22;8123;50.906;6.172;2022-12-16T02:11:39;-4.50;99.90
16038;DHT22;8123;50.906;6.172;2022-12-16T02:16:56;-4.50;99.90
16038;DHT22;8123;50.906;6.172;2022-12-16T02:22:46;-4.40;99.90
16038;DHT22;8123;50.906;6.172;2022-12-16T02:28:38;-4.40;99.90
16038;DHT22;8123;50.906;6.172;2022-12-16T02:34:23;-4.50;99.90
16038;DHT22;8123;50.906;6.172;2022-12-16T02:42:48;-4.60;99.90
16038;DHT22;8123;50.906;6.172;2022-12-16T02:45:27;-4.60;99.90
16038;DHT22;8123;50.906;6.172;2022-12-16T02:47:53;-4.60;99.90
16038;DHT22;8123;50.906;6.172;2022-12-16T02:50:27;-4.60;99.90
16038;DHT22;8123;50.906;6.172;2022-12-16T02:52:55;-4.60;99.90
16038;DHT22;8123;50.906;6.172;2022-12-16T02:55:32;-4.60;99.90
16038;DHT22;8123;50.906;6.172;2022-12-16T02:58:20;-4.60;99.90
16038;DHT22;8123;50.906;6.172;2022-12-16T03:01:10;-4.70;99.90
16038;DHT22;8123;50.906;6.172;2022-12-16T03:03:59;-4.70;99.90
16038;DHT22;8123;50.906;6.172;2022-12-16T03:06:25;-4.70;99.90
16038;DHT22;8123;50.906;6.172;2022-12-16T03:08:55;-4.70;99.90
16038;DHT22;8123;50.906;6.172;2022-12-16T03:11:26;-4.70;99.90
16038;DHT22;8123;50.906;6.172;2022-12-16T03:13:54;-4.70;99.90
16038;DHT22;8123;50.906;6.172;2022-12-16T03:16:25;-4.70;99.90
16038;DHT22;8123;50.906;6.172;2022-12-16T03:18:54;-4.70;99.90
16038;DHT22;8123;50.906;6.172;2022-12-16T03:21:26;-4.70;99.90
16038;DHT22;8123;50.906;6.172;2022-12-16T03:23:57;-4.70;99.90
16038;DHT22;8123;50.906;6.172;2022-12-16T03:26:38;-4.70;99.90
16038;DHT22;8123;50.906;6.172;2022-12-16T03:29:44;-4.70;99.90
16038;DHT22;8123;50.906;6.172;2022-12-16T03:32:26;-4.60;99.90
16038;DHT22;8123;50.906;6.172;2022-12-16T03:35:01;-4.60;99.90
16038;DHT22;8123;50.906;6.172;2022-12-16T03:37:32;-4.60;99.90
16038;DHT22;8123;50.906;6.172;2022-12-16T03:40:00;-4.60;99.90
16038;DHT22;8123;50.906;6.172;2022-12-16T03:42:27;-4.60;99.90
16038;DHT22;8123;50.906;6.172;2022-12-16T03:44:53;-4.60;99.90
16038;DHT22;8123;50.906;6.172;2022-12-16T03:47:18;-4.60;99.90
16038;DHT22;8123;50.906;6.172;2022-12-16T03:49:44;-4.60;99.90
16038;DHT22;8123;50.906;6.172;2022-12-16T03:52:10;-4.60;99.90
16038;DHT22;8123;50.906;6.172;2022-12-16T03:54:36;-4.60;99.90
16038;DHT22;8123;50.906;6.172;2022-12-16T03:57:02;-4.60;99.90
16038;DHT22;8123;50.906;6.172;2022-12-16T03:59:27;-4.60;99.90
16038;DHT22;8123;50.906;6.172;2022-12-16T04:01:53;-4.60;99.90
16038;DHT22;8123;50.906;6.172;2022-12-16T04:04:19;-4.60;99.90
16038;DHT22;8123;50.906;6.172;2022-12-16T04:06:45;-4.60;99.90
16038;DHT22;8123;50.906;6.172;2022-12-16T04:09:30;-4.60;99.90
16038;DHT22;8123;50.906;6.172;2022-12-16T04:11:56;-4.60;99.90
16038;DHT22;8123;50.906;6.172;2022-12-16T04:14:40;-4.60;99.90
16038;DHT22;8123;50.906;6.172;2022-12-16T04:17:24;-4.60;99.90
16038;DHT22;8123;50.906;6.172;2022-12-16T04:20:15;-4.50;99.90
16038;DHT22;8123;50.906;6.172;2022-12-16T04:23:00;-4.50;99.90
16038;DHT22;8123;50.906;6.172;2022-12-16T04:25:45;-4.40;99.90
16038;DHT22;8123;50.906;6.172;2022-12-16T04:28:11;-4.40;99.90
16038;DHT22;8123;50.906;6.172;2022-12-16T04:30:37;-4.40;99.90
16038;DHT22;8123;50.906;6.172;2022-12-16T04:33:07;-4.30;99.90
16038;DHT22;8123;50.906;6.172;2022-12-16T04:35:51;-4.30;99.90
16038;DHT22;8123;50.906;6.172;2022-12-16T04:38:36;-4.40;99.90
16038;DHT22;8123;50.906;6.172;2022-12-16T04:41:20;-4.40;99.90
16038;DHT22;8123;50.906;6.172;2022-12-16T04:44:04;-4.30;99.90
16038;DHT22;8123;50.906;6.172;2022-12-16T04:46:48;-4.30;99.90
16038;DHT22;8123;50.906;6.172;2022-12-16T04:49:32;-4.40;99.90
16038;DHT22;8123;50.906;6.172;2022-12-16T04:52:17;-4.40;99.90
16038;DHT22;8123;50.906;6.172;2022-12-16T04:55:01;-4.30;99.90
16038;DHT22;8123;50.906;6.172;2022-12-16T04:57:51;-4.30;99.90
16038;DHT22;8123;50.906;6.172;2022-12-16T05:00:35;-4.20;99.90
16038;DHT22;8123;50.906;6.172;2022-12-16T05:03:39;-4.20;99.90
16038;DHT22;8123;50.906;6.172;2022-12-16T05:06:23;-4.20;99.90
16038;DHT22;8123;50.906;6.172;2022-12-16T05:09:07;-4.30;99.90
16038;DHT22;8123;50.906;6.172;2022-12-16T05:11:51;-4.50;99.90
16038;DHT22;8123;50.906;6.172;2022-12-16T05:14:36;-4.40;99.90
16038;DHT22;8123;50.906;6.172;2022-12-16T05:17:20;-4.30;99.90
16038;DHT22;8123;50.906;6.172;2022-12-16T05:20:05;-4.40;99.90
16038;DHT22;8123;50.906;6.172;2022-12-16T05:22:49;-4.50;99.90
16038;DHT22;8123;50.906;6.172;2022-12-16T05:25:33;-4.50;99.90
16038;DHT22;8123;50.906;6.172;2022-12-16T05:28:18;-4.40;99.90
16038;DHT22;8123;50.906;6.172;2022-12-16T05:31:02;-4.30;99.90
16038;DHT22;8123;50.906;6.172;2022-12-16T05:33:46;-4.30;99.90
16038;DHT22;8123;50.906;6.172;2022-12-16T05:36:31;-4.30;99.90
16038;DHT22;8123;50.906;6.172;2022-12-16T05:39:15;-4.30;99.90
16038;DHT22;8123;50.906;6.172;2022-12-16T05:41:59;-4.40;99.90
16038;DHT22;8123;50.906;6.172;2022-12-16T05:44:44;-4.40;99.90
16038;DHT22;8123;50.906;6.172;2022-12-16T05:47:28;-4.50;99.90
16038;DHT22;8123;50.906;6.172;2022-12-16T05:50:12;-4.50;99.90
16038;DHT22;8123;50.906;6.172;2022-12-16T05:52:56;-4.50;99.90
16038;DHT22;8123;50.906;6.172;2022-12-16T05:55:41;-4.50;99.90
16038;DHT22;8123;50.906;6.172;2022-12-16T05:58:26;-4.60;99.90
16038;DHT22;8123;50.906;6.172;2022-12-16T06:01:11;-4.50;99.90
16038;DHT22;8123;50.906;6.172;2022-12-16T06:03:55;-4.50;99.90
16038;DHT22;8123;50.906;6.172;2022-12-16T06:06:40;-4.60;99.90
16038;DHT22;8123;50.906;6.172;2022-12-16T06:09:24;-4.50;99.90
16038;DHT22;8123;50.906;6.172;2022-12-16T06:12:08;-4.50;99.90
16038;DHT22;8123;50.906;6.172;2022-12-16T06:14:52;-4.50;99.90
16038;DHT22;8123;50.906;6.172;2022-12-16T06:17:41;-4.50;99.90
16038;DHT22;8123;50.906;6.172;2022-12-16T06:20:26;-4.40;99.90
16038;DHT22;8123;50.906;6.172;2022-12-16T06:23:09;-4.40;99.90
16038;DHT22;8123;50.906;6.172;2022-12-16T06:25:55;-4.50;99.90
16038;DHT22;8123;50.906;6.172;2022-12-16T06:28:39;-4.50;99.90
16038;DHT22;8123;50.906;6.172;2022-12-16T06:31:23;-4.40;99.90
16038;DHT22;8123;50.906;6.172;2022-12-16T06:34:07;-4.50;99.90
16038;DHT22;8123;50.906;6.172;2022-12-16T06:36:51;-4.40;99.90
16038;DHT22;8123;50.906;6.172;2022-12-16T06:39:35;-4.40;99.90
16038;DHT22;8123;50.906;6.172;2022-12-16T06:42:19;-4.30;99.90
16038;DHT22;8123;50.906;6.172;2022-12-16T06:45:03;-4.30;99.90
16038;DHT22;8123;50.906;6.172;2022-12-16T06:47:48;-4.20;99.90
16038;DHT22;8123;50.906;6.172;2022-12-16T06:50:32;-4.10;99.90
16038;DHT22;8123;50.906;6.172;2022-12-16T06:53:16;-4.00;99.90
16038;DHT22;8123;50.906;6.172;2022-12-16T06:56:00;-3.90;99.90
16038;DHT22;8123;50.906;6.172;2022-12-16T06:58:44;-3.90;99.90
16038;DHT22;8123;50.906;6.172;2022-12-16T07:01:28;-3.70;99.90
16038;DHT22;8123;50.906;6.172;2022-12-16T07:04:12;-3.60;99.90
16038;DHT22;8123;50.906;6.172;2022-12-16T07:06:57;-3.50;99.90
16038;DHT22;8123;50.906;6.172;2022-12-16T07:09:41;-3.40;99.90
16038;DHT22;8123;50.906;6.172;2022-12-16T07:12:25;-3.30;99.90
16038;DHT22;8123;50.906;6.172;2022-12-16T07:15:09;-3.20;99.90
16038;DHT22;8123;50.906;6.172;2022-12-16T07:17:54;-3.20;99.90
16038;DHT22;8123;50.906;6.172;2022-12-16T07:20:38;-3.10;99.90
16038;DHT22;8123;50.906;6.172;2022-12-16T07:23:22;-3.00;99.90
16038;DHT22;8123;50.906;6.172;2022-12-16T07:26:07;-3.00;99.90
16038;DHT22;8123;50.906;6.172;2022-12-16T07:28:51;-2.80;99.90
16038;DHT22;8123;50.906;6.172;2022-12-16T07:31:35;-2.80;99.90
16038;DHT22;8123;50.906;6.172;2022-12-16T07:34:19;-2.80;99.90
16038;DHT22;8123;50.906;6.172;2022-12-16T07:37:03;-2.70;99.90
16038;DHT22;8123;50.906;6.172;2022-12-16T07:39:47;-2.70;99.90
16038;DHT22;8123;50.906;6.172;2022-12-16T07:42:31;-2.60;99.90
16038;DHT22;8123;50.906;6.172;2022-12-16T07:45:16;-2.60;99.90
16038;DHT22;8123;50.906;6.172;2022-12-16T07:48:00;-2.50;99.90
16038;DHT22;8123;50.906;6.172;2022-12-16T07:50:44;-2.50;99.90
16038;DHT22;8123;50.906;6.172;2022-12-16T07:53:28;-2.40;99.90
16038;DHT22;8123;50.906;6.172;2022-12-16T07:56:12;-2.30;99.90
16038;DHT22;8123;50.906;6.172;2022-12-16T07:58:57;-2.30;99.90
16038;DHT22;8123;50.906;6.172;2022-12-16T08:01:41;-2.20;99.90
16038;DHT22;8123;50.906;6.172;2022-12-16T08:04:25;-2.10;99.90
16038;DHT22;8123;50.906;6.172;2022-12-16T08:07:10;-2.10;99.90
16038;DHT22;8123;50.906;6.172;2022-12-16T08:09:54;-2.00;99.90
16038;DHT22;8123;50.906;6.172;2022-12-16T08:12:38;-1.90;99.90
16038;DHT22;8123;50.906;6.172;2022-12-16T08:15:22;-1.80;99.90
16038;DHT22;8123;50.906;6.172;2022-12-16T08:18:06;-1.50;99.90
16038;DHT22;8123;50.906;6.172;2022-12-16T08:20:50;-1.80;99.90
16038;DHT22;8123;50.906;6.172;2022-12-16T08:23:35;-1.60;99.90
16038;DHT22;8123;50.906;6.172;2022-12-16T08:26:19;-1.70;99.90
16038;DHT22;8123;50.906;6.172;2022-12-16T08:29:03;-1.70;99.90
16038;DHT22;8123;50.906;6.172;2022-12-16T08:31:48;-1.60;99.90
16038;DHT22;8123;50.906;6.172;2022-12-16T08:34:32;-1.60;99.90
16038;DHT22;8123;50.906;6.172;2022-12-16T08:37:16;-1.50;99.90
16038;DHT22;8123;50.906;6.172;2022-12-16T08:40:00;-1.50;99.90
16038;DHT22;8123;50.906;6.172;2022-12-16T08:42:44;-1.20;99.90
16038;DHT22;8123;50.906;6.172;2022-12-16T08:45:28;-1.20;99.90
16038;DHT22;8123;50.906;6.172;2022-12-16T08:48:12;-1.30;99.90
16038;DHT22;8123;50.906;6.172;2022-12-16T08:51:00;-1.20;99.90
16038;DHT22;8123;50.906;6.172;2022-12-16T08:53:45;-1.20;99.90
16038;DHT22;8123;50.906;6.172;2022-12-16T08:56:29;-1.10;99.90
16038;DHT22;8123;50.906;6.172;2022-12-16T08:59:13;-1.20;99.90
16038;DHT22;8123;50.906;6.172;2022-12-16T09:01:57;-1.00;99.90
16038;DHT22;8123;50.906;6.172;2022-12-16T09:04:42;-0.90;99.90
16038;DHT22;8123;50.906;6.172;2022-12-16T09:07:26;-0.90;99.90
16038;DHT22;8123;50.906;6.172;2022-12-16T09:10:10;-0.90;99.90
16038;DHT22;8123;50.906;6.172;2022-12-16T09:13:13;-0.90;99.90
16038;DHT22;8123;50.906;6.172;2022-12-16T09:15:57;-0.80;99.90
16038;DHT22;8123;50.906;6.172;2022-12-16T09:18:42;-0.70;99.90
16038;DHT22;8123;50.906;6.172;2022-12-16T09:21:26;-0.70;99.90
16038;DHT22;8123;50.906;6.172;2022-12-16T09:24:10;-0.60;99.90
16038;DHT22;8123;50.906;6.172;2022-12-16T09:26:54;-0.50;99.90
16038;DHT22;8123;50.906;6.172;2022-12-16T09:29:39;-0.50;99.90
16038;DHT22;8123;50.906;6.172;2022-12-16T09:32:23;-0.50;99.90
16038;DHT22;8123;50.906;6.172;2022-12-16T09:35:07;-0.40;99.90
16038;DHT22;8123;50.906;6.172;2022-12-16T09:37:51;-0.40;99.90
16038;DHT22;8123;50.906;6.172;2022-12-16T09:40:37;-0.40;99.90
16038;DHT22;8123;50.906;6.172;2022-12-16T09:43:29;-0.40;99.90
16038;DHT22;8123;50.906;6.172;2022-12-16T09:52:19;-0.30;99.90
16038;DHT22;8123;50.906;6.172;2022-12-16T09:55:05;-0.10;99.90
16038;DHT22;8123;50.906;6.172;2022-12-16T09:57:53;-0.20;99.90
16038;DHT22;8123;50.906;6.172;2022-12-16T10:00:37;-0.20;99.90
16038;DHT22;8123;50.906;6.172;2022-12-16T10:03:24;-0.10;99.90
16038;DHT22;8123;50.906;6.172;2022-12-16T10:09:31;-0.10;99.90
16038;DHT22;8123;50.906;6.172;2022-12-16T10:22:24;0.00;99.90
16038;DHT22;8123;50.906;6.172;2022-12-16T10:25:25;0.10;99.90
16038;DHT22;8123;50.906;6.172;2022-12-16T10:28:28;0.20;99.90
16038;DHT22;8123;50.906;6.172;2022-12-16T10:31:16;0.20;99.90
16038;DHT22;8123;50.906;6.172;2022-12-16T10:34:01;0.10;99.90
16038;DHT22;8123;50.906;6.172;2022-12-16T10:36:46;0.20;99.90
16038;DHT22;8123;50.906;6.172;2022-12-16T10:39:37;0.20;99.90
16038;DHT22;8123;50.906;6.172;2022-12-16T10:42:28;0.30;99.90
16038;DHT22;8123;50.906;6.172;2022-12-16T10:45:20;0.50;99.90
16038;DHT22;8123;50.906;6.172;2022-12-16T10:48:06;0.30;99.90
16038;DHT22;8123;50.906;6.172;2022-12-16T10:50:53;0.20;99.90
16038;DHT22;8123;50.906;6.172;2022-12-16T10:53:37;0.20;99.90
16038;DHT22;8123;50.906;6.172;2022-12-16T10:56:38;0.20;99.90
16038;DHT22;8123;50.906;6.172;2022-12-16T10:59:36;0.40;99.90
16038;DHT22;8123;50.906;6.172;2022-12-16T11:02:26;0.20;99.90
16038;DHT22;8123;50.906;6.172;2022-12-16T11:05:31;0.20;99.90
16038;DHT22;8123;50.906;6.172;2022-12-16T11:08:34;0.10;99.90
16038;DHT22;8123;50.906;6.172;2022-12-16T11:11:20;-0.10;99.90
16038;DHT22;8123;50.906;6.172;2022-12-16T11:14:15;0.20;99.90
16038;DHT22;8123;50.906;6.172;2022-12-16T11:17:20;0.10;99.90
16038;DHT22;8123;50.906;6.172;2022-12-16T11:23:20;0.20;99.90
16038;DHT22;8123;50.906;6.172;2022-12-16T11:26:16;0.20;99.90
16038;DHT22;8123;50.906;6.172;2022-12-16T11:31:53;0.20;99.90
16038;DHT22;8123;50.906;6.172;2022-12-16T11:34:39;0.20;99.90
16038;DHT22;8123;50.906;6.172;2022-12-16T11:37:27;0.30;99.90
16038;DHT22;8123;50.906;6.172;2022-12-16T11:40:14;0.30;99.90
16038;DHT22;8123;50.906;6.172;2022-12-16T11:43:01;0.30;99.90
16038;DHT22;8123;50.906;6.172;2022-12-16T11:45:47;0.20;99.90
16038;DHT22;8123;50.906;6.172;2022-12-16T11:49:05;0.20;99.90
16038;DHT22;8123;50.906;6.172;2022-12-16T11:51:58;0.20;99.90
16038;DHT22;8123;50.906;6.172;2022-12-16T11:54:56;0.30;99.90
16038;DHT22;8123;50.906;6.172;2022-12-16T12:00:40;0.40;99.90
16038;DHT22;8123;50.906;6.172;2022-12-16T12:03:35;0.50;99.90
16038;DHT22;8123;50.906;6.172;2022-12-16T12:06:28;0.40;99.90
16038;DHT22;8123;50.906;6.172;2022-12-16T12:09:27;0.40;99.90
16038;DHT22;8123;50.906;6.172;2022-12-16T12:15:25;0.60;99.90
16038;DHT22;8123;50.906;6.172;2022-12-16T12:21:31;0.50;99.90
16038;DHT22;8123;50.906;6.172;2022-12-16T12:30:30;0.50;99.90
16038;DHT22;8123;50.906;6.172;2022-12-16T12:34:15;0.60;99.90
16038;DHT22;8123;50.906;6.172;2022-12-16T12:36:56;0.60;99.90
16038;DHT22;8123;50.906;6.172;2022-12-16T12:39:46;0.60;99.90
16038;DHT22;8123;50.906;6.172;2022-12-16T12:49:08;0.80;99.90
16038;DHT22;8123;50.906;6.172;2022-12-16T12:52:17;0.80;99.90
16038;DHT22;8123;50.906;6.172;2022-12-16T12:55:11;0.80;99.90
16038;DHT22;8123;50.906;6.172;2022-12-16T12:57:59;0.90;99.90
16038;DHT22;8123;50.906;6.172;2022-12-16T13:00:51;1.10;99.90
16038;DHT22;8123;50.906;6.172;2022-12-16T13:03:41;0.80;99.90
16038;DHT22;8123;50.906;6.172;2022-12-16T13:06:28;0.90;99.90
16038;DHT22;8123;50.906;6.172;2022-12-16T13:09:33;0.80;99.90
16038;DHT22;8123;50.906;6.172;2022-12-16T13:15:14;0.90;99.90
16038;DHT22;8123;50.906;6.172;2022-12-16T13:20:52;0.90;99.90
16038;DHT22;8123;50.906;6.172;2022-12-16T13:23:39;0.90;99.90
16038;DHT22;8123;50.906;6.172;2022-12-16T13:26:30;0.90;99.90
16038;DHT22;8123;50.906;6.172;2022-12-16T13:29:26;0.90;99.90
16038;DHT22;8123;50.906;6.172;2022-12-16T13:32:19;0.90;99.90
16038;DHT22;8123;50.906;6.172;2022-12-16T13:37:55;1.30;99.90
16038;DHT22;8123;50.906;6.172;2022-12-16T13:40:55;0.90;99.90
16038;DHT22;8123;50.906;6.172;2022-12-16T13:43:41;0.90;99.90
16038;DHT22;8123;50.906;6.172;2022-12-16T13:46:51;0.90;99.90
16038;DHT22;8123;50.906;6.172;2022-12-16T13:58:44;0.90;99.90
16038;DHT22;8123;50.906;6.172;2022-12-16T14:04:35;1.00;99.90
16038;DHT22;8123;50.906;6.172;2022-12-16T14:07:22;0.90;99.90
16038;DHT22;8123;50.906;6.172;2022-12-16T14:10:31;0.80;99.90
16038;DHT22;8123;50.906;6.172;2022-12-16T14:16:31;0.80;99.90
16038;DHT22;8123;50.906;6.172;2022-12-16T14:19:45;0.80;99.90
16038;DHT22;8123;50.906;6.172;2022-12-16T14:22:56;1.00;99.90
16038;DHT22;8123;50.906;6.172;2022-12-16T14:25:43;0.80;99.90
16038;DHT22;8123;50.906;6.172;2022-12-16T14:28:35;1.40;99.90
16038;DHT22;8123;50.906;6.172;2022-12-16T14:31:35;0.80;99.90
16038;DHT22;8123;50.906;6.172;2022-12-16T14:34:24;0.80;99.90
16038;DHT22;8123;50.906;6.172;2022-12-16T14:37:14;0.80;99.90
16038;DHT22;8123;50.906;6.172;2022-12-16T14:39:58;0.80;99.90
16038;DHT22;8123;50.906;6.172;2022-12-16T14:42:43;0.80;99.90
16038;DHT22;8123;50.906;6.172;2022-12-16T14:45:30;0.80;99.90
16038;DHT22;8123;50.906;6.172;2022-12-16T14:57:13;0.70;99.90
16038;DHT22;8123;50.906;6.172;2022-12-16T15:02:47;0.70;99.90
16038;DHT22;8123;50.906;6.172;2022-12-16T15:05:35;0.70;99.90
16038;DHT22;8123;50.906;6.172;2022-12-16T15:08:21;0.70;99.90
16038;DHT22;8123;50.906;6.172;2022-12-16T15:11:07;0.60;99.90
16038;DHT22;8123;50.906;6.172;2022-12-16T15:13:56;0.60;99.90
16038;DHT22;8123;50.906;6.172;2022-12-16T15:16:42;0.60;99.90
16038;DHT22;8123;50.906;6.172;2022-12-16T15:19:31;0.60;99.90
16038;DHT22;8123;50.906;6.172;2022-12-16T15:22:20;0.50;99.90
16038;DHT22;8123;50.906;6.172;2022-12-16T15:25:04;0.60;99.90
16038;DHT22;8123;50.906;6.172;2022-12-16T15:27:54;0.60;99.90
16038;DHT22;8123;50.906;6.172;2022-12-16T15:30:41;0.50;99.90
16038;DHT22;8123;50.906;6.172;2022-12-16T15:33:33;0.50;99.90
16038;DHT22;8123;50.906;6.172;2022-12-16T15:36:31;0.40;99.90
16038;DHT22;8123;50.906;6.172;2022-12-16T15:42:19;0.40;99.90
16038;DHT22;8123;50.906;6.172;2022-12-16T15:45:28;0.30;99.90
16038;DHT22;8123;50.906;6.172;2022-12-16T15:54:19;0.20;99.90
16038;DHT22;8123;50.906;6.172;2022-12-16T15:57:33;0.60;99.90
16038;DHT22;8123;50.906;6.172;2022-12-16T16:00:29;0.20;99.90
16038;DHT22;8123;50.906;6.172;2022-12-16T16:03:28;0.20;99.90
16038;DHT22;8123;50.906;6.172;2022-12-16T16:06:22;0.20;99.90
16038;DHT22;8123;50.906;6.172;2022-12-16T16:09:28;0.20;99.90
16038;DHT22;8123;50.906;6.172;2022-12-16T16:12:15;0.20;99.90
16038;DHT22;8123;50.906;6.172;2022-12-16T16:14:59;0.20;99.90
16038;DHT22;8123;50.906;6.172;2022-12-16T16:17:46;0.20;99.90
16038;DHT22;8123;50.906;6.172;2022-12-16T16:20:31;0.10;99.90
16038;DHT22;8123;50.906;6.172;2022-12-16T16:23:15;0.20;99.90
16038;DHT22;8123;50.906;6.172;2022-12-16T16:26:00;0.10;99.90
16038;DHT22;8123;50.906;6.172;2022-12-16T16:28:44;0.20;99.90
16038;DHT22;8123;50.906;6.172;2022-12-16T16:31:28;0.20;99.90
16038;DHT22;8123;50.906;6.172;2022-12-16T16:34:12;0.50;99.90
16038;DHT22;8123;50.906;6.172;2022-12-16T16:36:57;0.20;99.90
16038;DHT22;8123;50.906;6.172;2022-12-16T16:39:42;0.20;99.90
16038;DHT22;8123;50.906;6.172;2022-12-16T16:42:27;0.10;99.90
16038;DHT22;8123;50.906;6.172;2022-12-16T16:45:12;0.20;99.90
16038;DHT22;8123;50.906;6.172;2022-12-16T16:48:23;0.40;99.90
16038;DHT22;8123;50.906;6.172;2022-12-16T16:51:10;0.30;99.90
16038;DHT22;8123;50.906;6.172;2022-12-16T16:53:54;0.60;99.90
16038;DHT22;8123;50.906;6.172;2022-12-16T16:56:39;0.30;99.90
16038;DHT22;8123;50.906;6.172;2022-12-16T16:59:23;0.50;99.90
16038;DHT22;8123;50.906;6.172;2022-12-16T17:02:17;0.40;99.90
16038;DHT22;8123;50.906;6.172;2022-12-16T17:05:02;0.60;99.90
16038;DHT22;8123;50.906;6.172;2022-12-16T17:07:46;0.40;99.90
16038;DHT22;8123;50.906;6.172;2022-12-16T17:10:31;0.40;99.90
16038;DHT22;8123;50.906;6.172;2022-12-16T17:13:15;0.40;99.90
16038;DHT22;8123;50.906;6.172;2022-12-16T17:15:59;0.40;99.90
16038;DHT22;8123;50.906;6.172;2022-12-16T17:18:43;0.30;99.90
16038;DHT22;8123;50.906;6.172;2022-12-16T17:21:27;0.40;99.90
16038;DHT22;8123;50.906;6.172;2022-12-16T17:24:11;0.40;99.90
16038;DHT22;8123;50.906;6.172;2022-12-16T17:26:55;0.30;99.90
16038;DHT22;8123;50.906;6.172;2022-12-16T17:29:39;0.40;99.90
16038;DHT22;8123;50.906;6.172;2022-12-16T17:32:23;0.30;99.90
16038;DHT22;8123;50.906;6.172;2022-12-16T17:35:10;0.30;99.90
16038;DHT22;8123;50.906;6.172;2022-12-16T17:37:54;0.40;99.90
16038;DHT22;8123;50.906;6.172;2022-12-16T17:40:38;0.40;99.90
16038;DHT22;8123;50.906;6.172;2022-12-16T17:43:22;0.40;99.90
16038;DHT22;8123;50.906;6.172;2022-12-16T17:46:09;0.40;99.90
16038;DHT22;8123;50.906;6.172;2022-12-16T17:48:55;0.40;99.90
16038;DHT22;8123;50.906;6.172;2022-12-16T17:51:40;0.50;99.90
16038;DHT22;8123;50.906;6.172;2022-12-16T17:54:25;0.50;99.90
16038;DHT22;8123;50.906;6.172;2022-12-16T17:57:09;0.50;99.90
16038;DHT22;8123;50.906;6.172;2022-12-16T17:59:54;0.50;99.90
16038;DHT22;8123;50.906;6.172;2022-12-16T18:02:39;0.50;99.90
16038;DHT22;8123;50.906;6.172;2022-12-16T18:05:24;0.50;99.90
16038;DHT22;8123;50.906;6.172;2022-12-16T18:08:09;0.50;99.90
16038;DHT22;8123;50.906;6.172;2022-12-16T18:10:54;0.50;99.90
16038;DHT22;8123;50.906;6.172;2022-12-16T18:13:39;0.50;99.90
16038;DHT22;8123;50.906;6.172;2022-12-16T18:16:23;0.60;99.90
16038;DHT22;8123;50.906;6.172;2022-12-16T18:19:10;0.50;99.90
16038;DHT22;8123;50.906;6.172;2022-12-16T18:21:54;0.50;99.90
16038;DHT22;8123;50.906;6.172;2022-12-16T18:24:38;0.90;99.90
16038;DHT22;8123;50.906;6.172;2022-12-16T18:27:22;0.50;99.90
16038;DHT22;8123;50.906;6.172;2022-12-16T18:30:07;0.50;99.90
16038;DHT22;8123;50.906;6.172;2022-12-16T18:32:51;0.50;99.90
16038;DHT22;8123;50.906;6.172;2022-12-16T18:35:36;0.70;99.90
16038;DHT22;8123;50.906;6.172;2022-12-16T18:38:20;0.50;99.90
16038;DHT22;8123;50.906;6.172;2022-12-16T18:41:11;0.60;99.90
16038;DHT22;8123;50.906;6.172;2022-12-16T18:43:57;0.50;99.90
16038;DHT22;8123;50.906;6.172;2022-12-16T18:46:41;0.60;99.90
16038;DHT22;8123;50.906;6.172;2022-12-16T18:49:25;0.50;99.90
16038;DHT22;8123;50.906;6.172;2022-12-16T18:52:11;0.60;99.90
16038;DHT22;8123;50.906;6.172;2022-12-16T18:54:55;0.60;99.90
16038;DHT22;8123;50.906;6.172;2022-12-16T18:57:40;0.60;99.90
16038;DHT22;8123;50.906;6.172;2022-12-16T19:00:24;0.60;99.90
16038;DHT22;8123;50.906;6.172;2022-12-16T19:03:07;0.70;99.90
16038;DHT22;8123;50.906;6.172;2022-12-16T19:05:53;0.70;99.90
16038;DHT22;8123;50.906;6.172;2022-12-16T19:08:37;0.60;99.90
16038;DHT22;8123;50.906;6.172;2022-12-16T19:11:21;0.60;99.90
16038;DHT22;8123;50.906;6.172;2022-12-16T19:14:06;0.60;99.90
16038;DHT22;8123;50.906;6.172;2022-12-16T19:16:50;0.60;99.90
16038;DHT22;8123;50.906;6.172;2022-12-16T19:19:34;0.60;99.90
16038;DHT22;8123;50.906;6.172;2022-12-16T19:22:18;0.60;99.90
16038;DHT22;8123;50.906;6.172;2022-12-16T19:25:02;0.60;99.90